Time,TemperatureF,DewpointF,PressureIn,WindDirection,WindDirectionDegrees,WindSpeedMPH,WindSpeedGustMPH,Humidity,HourlyPrecipIn,Conditions,Clouds,dailyrainin,SoftwareType,DateUTC
2013-04-17 00:03:00,51.1,47.7,30.08,SE,135,4.5,6.9,88,0.00,,,0.00,pywws,2013-04-16 23:03:00,
2013-04-17 00:09:00,50.9,47.8,30.08,SW,225,3.1,6.9,89,0.00,,,0.00,pywws,2013-04-16 23:09:00,
2013-04-17 00:14:00,50.7,47.9,30.09,SW,225,0.7,1.6,90,0.00,,,0.00,pywws,2013-04-16 23:14:00,
2013-04-17 00:20:00,50.4,47.8,30.09,South,180,3.8,6.9,91,0.00,,,0.00,pywws,2013-04-16 23:20:00,
2013-04-17 00:26:00,50.4,47.8,30.09,South,180,3.1,7.6,91,0.00,,,0.00,pywws,2013-04-16 23:26:00,
2013-04-17 00:31:00,50.2,47.7,30.09,SE,135,1.6,5.4,91,0.00,,,0.00,pywws,2013-04-16 23:31:00,
2013-04-17 00:37:00,50.0,47.8,30.08,South,180,2.2,9.2,92,0.00,,,0.00,pywws,2013-04-16 23:37:00,
2013-04-17 00:42:00,50.0,47.8,30.09,South,180,3.1,6.9,92,0.00,,,0.00,pywws,2013-04-16 23:42:00,
2013-04-17 00:48:00,49.8,47.9,30.08,SSE,158,2.2,4.5,93,0.00,,,0.00,pywws,2013-04-16 23:48:00,
2013-04-17 00:54:00,49.6,47.7,30.08,SE,135,1.6,3.8,93,0.00,,,0.00,pywws,2013-04-16 23:54:00,
2013-04-17 00:59:00,49.5,47.5,30.08,SE,135,0.7,3.8,93,0.00,,,0.00,pywws,2013-04-16 23:59:00,
2013-04-17 01:05:00,49.3,47.3,30.07,South,180,0.7,1.6,93,0.00,,,0.00,pywws,2013-04-17 00:05:00,
2013-04-17 01:10:00,49.1,47.2,30.07,South,180,0.7,2.2,93,0.00,,,0.00,pywws,2013-04-17 00:10:00,
2013-04-17 01:16:00,49.1,47.4,30.07,East,90,0.0,1.6,94,0.00,,,0.00,pywws,2013-04-17 00:16:00,
2013-04-17 01:22:00,49.1,47.4,30.07,South,180,0.0,1.6,94,0.00,,,0.00,pywws,2013-04-17 00:22:00,
2013-04-17 01:27:00,48.9,47.3,30.07,SE,135,0.7,2.2,94,0.00,,,0.00,pywws,2013-04-17 00:27:00,
2013-04-17 01:33:00,48.7,47.4,30.07,SE,135,1.6,3.8,95,0.00,,,0.00,pywws,2013-04-17 00:33:00,
2013-04-17 01:38:00,48.9,47.6,30.07,East,90,0.7,2.2,95,0.00,,,0.00,pywws,2013-04-17 00:38:00,
2013-04-17 01:44:00,49.3,48.2,30.07,SE,135,0.7,1.6,96,0.00,,,0.00,pywws,2013-04-17 00:44:00,
2013-04-17 01:50:00,49.6,48.5,30.07,NW,315,0.7,1.6,96,0.00,,,0.00,pywws,2013-04-17 00:50:00,
2013-04-17 01:55:00,50.0,48.9,30.07,SW,225,1.6,4.5,96,0.00,,,0.00,pywws,2013-04-17 00:55:00,
2013-04-17 02:01:00,50.0,48.9,30.06,East,90,1.6,4.5,96,0.00,,,0.00,pywws,2013-04-17 01:01:00,
2013-04-17 02:06:00,50.4,49.3,30.06,NE,45,1.6,4.5,96,0.00,,,0.00,pywws,2013-04-17 01:06:00,
2013-04-17 02:12:00,50.4,49.0,30.06,SE,135,0.7,3.1,95,0.00,,,0.00,pywws,2013-04-17 01:12:00,
2013-04-17 02:18:00,50.5,49.2,30.06,ENE,68,1.6,3.8,95,0.00,,,0.00,pywws,2013-04-17 01:18:00,
2013-04-17 02:23:00,50.7,49.1,30.06,East,90,0.7,4.5,94,0.00,,,0.00,pywws,2013-04-17 01:23:00,
2013-04-17 02:29:00,50.9,49.2,30.05,South,180,1.6,8.3,94,0.00,,,0.00,pywws,2013-04-17 01:29:00,
2013-04-17 02:34:00,51.1,49.1,30.06,West,270,2.2,7.6,93,0.00,,,0.00,pywws,2013-04-17 01:34:00,
2013-04-17 02:40:00,51.1,48.8,30.06,East,90,3.1,6.9,92,0.00,,,0.00,pywws,2013-04-17 01:40:00,
2013-04-17 02:46:00,51.3,48.7,30.06,South,180,1.6,5.4,91,0.00,,,0.00,pywws,2013-04-17 01:46:00,
2013-04-17 02:51:00,51.3,48.7,30.05,East,90,0.7,2.2,91,0.00,,,0.00,pywws,2013-04-17 01:51:00,
2013-04-17 02:57:00,51.3,48.4,30.05,South,180,3.8,6.0,90,0.00,,,0.00,pywws,2013-04-17 01:57:00,
2013-04-17 03:02:00,51.3,48.4,30.05,South,180,2.2,7.6,90,0.00,,,0.00,pywws,2013-04-17 02:02:00,
2013-04-17 03:07:00,51.3,48.4,30.05,SE,135,0.7,2.2,90,0.00,,,0.00,pywws,2013-04-17 02:07:00,
2013-04-17 03:13:00,51.3,48.4,30.05,South,180,1.6,4.5,90,0.00,,,0.00,pywws,2013-04-17 02:13:00,
2013-04-17 03:18:00,51.3,48.7,30.05,South,180,3.8,6.9,91,0.00,,,0.00,pywws,2013-04-17 02:18:00,
2013-04-17 03:24:00,51.3,48.7,30.05,SW,225,2.2,6.0,91,0.00,,,0.00,pywws,2013-04-17 02:24:00,
2013-04-17 03:30:00,51.3,48.7,30.05,South,180,0.7,3.8,91,0.00,,,0.00,pywws,2013-04-17 02:30:00,
2013-04-17 03:35:00,51.3,49.0,30.05,SE,135,3.1,6.0,92,0.00,,,0.00,pywws,2013-04-17 02:35:00,
2013-04-17 03:41:00,51.3,49.3,30.04,SE,135,1.6,4.5,93,0.00,,,0.00,pywws,2013-04-17 02:41:00,
2013-04-17 03:46:00,51.1,49.4,30.04,East,90,2.2,5.4,94,0.00,,,0.00,pywws,2013-04-17 02:46:00,
2013-04-17 03:52:00,51.1,49.4,30.04,North,0,0.7,2.2,94,0.00,,,0.00,pywws,2013-04-17 02:52:00,
2013-04-17 03:58:00,51.1,49.7,30.04,South,180,1.6,5.4,95,0.00,,,0.00,pywws,2013-04-17 02:58:00,
2013-04-17 04:01:00,51.1,49.7,30.04,SE,135,2.2,4.5,95,0.00,,,0.00,pywws,2013-04-17 03:01:00,
2013-04-17 04:03:00,51.1,50.0,30.03,NE,45,1.6,4.5,96,0.00,,,0.00,pywws,2013-04-17 03:03:00,
2013-04-17 04:06:00,51.1,50.0,30.03,SW,225,3.1,5.4,96,0.00,,,0.00,pywws,2013-04-17 03:06:00,
2013-04-17 04:11:00,50.9,50.1,30.04,South,180,4.5,6.9,97,0.00,,,0.00,pywws,2013-04-17 03:11:00,
2013-04-17 04:16:00,50.9,50.1,30.04,East,90,2.2,4.5,97,0.00,,,0.00,pywws,2013-04-17 03:16:00,
2013-04-17 04:21:00,50.9,50.1,30.04,SE,135,2.2,5.4,97,0.00,,,0.00,pywws,2013-04-17 03:21:00,
2013-04-17 04:26:00,50.7,50.2,30.04,SSE,158,0.0,1.6,98,0.00,,,0.00,pywws,2013-04-17 03:26:00,
2013-04-17 04:31:00,50.7,50.2,30.03,SE,135,0.7,2.2,98,0.00,,,0.00,pywws,2013-04-17 03:31:00,
2013-04-17 04:36:00,50.7,50.2,30.03,SE,135,0.7,3.1,98,0.00,,,0.00,pywws,2013-04-17 03:36:00,
2013-04-17 04:41:00,50.7,50.2,30.04,SE,135,0.7,3.1,98,0.00,,,0.00,pywws,2013-04-17 03:41:00,
2013-04-17 04:46:00,50.9,50.4,30.04,SE,135,1.6,4.5,98,0.00,,,0.00,pywws,2013-04-17 03:46:00,
2013-04-17 04:56:00,50.9,50.4,30.03,West,270,0.7,2.2,98,0.00,,,0.00,pywws,2013-04-17 03:56:00,
2013-04-17 05:00:00,51.1,50.5,30.03,SE,135,3.1,6.0,98,0.00,,,0.00,pywws,2013-04-17 04:00:00,
2013-04-17 05:01:00,51.3,50.7,30.03,South,180,3.8,6.9,98,0.00,,,0.00,pywws,2013-04-17 04:01:00,
2013-04-17 05:02:00,51.3,50.7,30.03,East,90,2.2,4.5,98,0.00,,,0.00,pywws,2013-04-17 04:02:00,
2013-04-17 05:06:00,51.4,50.9,30.03,NE,45,1.6,6.9,98,0.00,,,0.00,pywws,2013-04-17 04:06:00,
2013-04-17 05:11:00,51.4,50.9,30.03,SE,135,2.2,4.5,98,0.00,,,0.00,pywws,2013-04-17 04:11:00,
2013-04-17 05:17:00,51.6,51.1,30.03,SE,135,1.6,4.5,98,0.00,,,0.00,pywws,2013-04-17 04:17:00,
2013-04-17 05:22:00,51.6,51.1,30.03,SE,135,2.2,8.3,98,0.00,,,0.00,pywws,2013-04-17 04:22:00,
2013-04-17 05:28:00,51.8,51.3,30.02,South,180,5.4,7.6,98,0.00,,,0.00,pywws,2013-04-17 04:28:00,
2013-04-17 05:34:00,52.0,51.4,30.03,SE,135,2.2,5.4,98,0.00,,,0.00,pywws,2013-04-17 04:34:00,
2013-04-17 05:39:00,52.0,51.4,30.02,South,180,2.2,4.5,98,0.00,,,0.00,pywws,2013-04-17 04:39:00,
2013-04-17 05:45:00,52.2,51.6,30.03,South,180,3.8,6.0,98,0.00,,,0.00,pywws,2013-04-17 04:45:00,
2013-04-17 05:50:00,52.2,51.6,30.03,SE,135,0.7,3.8,98,0.00,,,0.00,pywws,2013-04-17 04:50:00,
2013-04-17 05:57:00,52.2,51.6,30.03,SE,135,3.8,7.6,98,0.00,,,0.00,pywws,2013-04-17 04:57:00,
2013-04-17 06:02:00,52.2,51.6,30.03,South,180,0.7,5.4,98,0.00,,,0.00,pywws,2013-04-17 05:02:00,
2013-04-17 06:08:00,52.2,51.6,30.02,SSE,158,3.8,8.3,98,0.00,,,0.00,pywws,2013-04-17 05:08:00,
2013-04-17 06:14:00,52.2,51.6,30.02,SE,135,3.8,6.0,98,0.00,,,0.00,pywws,2013-04-17 05:14:00,
2013-04-17 06:19:00,52.2,51.6,30.03,South,180,2.2,3.8,98,0.00,,,0.00,pywws,2013-04-17 05:19:00,
2013-04-17 06:25:00,52.2,51.6,30.02,East,90,3.8,7.6,98,0.00,,,0.00,pywws,2013-04-17 05:25:00,
2013-04-17 06:30:00,52.3,51.8,30.02,South,180,3.1,5.4,98,0.00,,,0.00,pywws,2013-04-17 05:30:00,
2013-04-17 06:36:00,52.5,52.0,30.03,East,90,2.2,5.4,98,0.00,,,0.00,pywws,2013-04-17 05:36:00,
2013-04-17 06:42:00,52.5,52.0,30.02,NE,45,3.1,4.5,98,0.00,,,0.00,pywws,2013-04-17 05:42:00,
2013-04-17 06:47:00,52.7,52.2,30.02,SE,135,1.6,3.8,98,0.00,,,0.00,pywws,2013-04-17 05:47:00,
2013-04-17 06:53:00,52.7,52.2,30.02,SSE,158,3.8,8.3,98,0.00,,,0.00,pywws,2013-04-17 05:53:00,
2013-04-17 06:58:00,52.9,52.3,30.02,SSE,158,3.1,6.0,98,0.00,,,0.00,pywws,2013-04-17 05:58:00,
2013-04-17 07:04:00,53.1,52.5,30.02,West,270,2.2,6.0,98,0.00,,,0.00,pywws,2013-04-17 06:04:00,
2013-04-17 07:10:00,53.1,52.5,30.02,SE,135,1.6,5.4,98,0.00,,,0.00,pywws,2013-04-17 06:10:00,
2013-04-17 07:15:00,53.2,52.7,30.02,South,180,2.2,5.4,98,0.00,,,0.00,pywws,2013-04-17 06:15:00,
2013-04-17 07:21:00,53.2,52.7,30.02,South,180,3.8,6.0,98,0.00,,,0.00,pywws,2013-04-17 06:21:00,
2013-04-17 07:26:00,53.4,52.9,30.01,South,180,3.1,5.4,98,0.00,,,0.00,pywws,2013-04-17 06:26:00,
2013-04-17 07:32:00,53.6,53.0,30.01,South,180,4.5,11.4,98,0.00,,,0.00,pywws,2013-04-17 06:32:00,
2013-04-17 07:38:00,53.8,53.2,30.01,South,180,3.8,8.3,98,0.00,,,0.00,pywws,2013-04-17 06:38:00,
2013-04-17 07:43:00,53.8,53.2,30.01,South,180,3.8,8.3,98,0.00,,,0.00,pywws,2013-04-17 06:43:00,
2013-04-17 07:49:00,54.0,53.4,30.01,SE,135,3.8,7.6,98,0.00,,,0.00,pywws,2013-04-17 06:49:00,
2013-04-17 07:54:00,54.0,53.4,30.01,SE,135,2.2,7.6,98,0.00,,,0.00,pywws,2013-04-17 06:54:00,
2013-04-17 08:00:00,54.0,53.4,30.01,West,270,3.1,6.9,98,0.00,,,0.00,pywws,2013-04-17 07:00:00,
2013-04-17 08:06:00,54.3,53.8,30.01,South,180,6.0,13.6,98,0.00,,,0.00,pywws,2013-04-17 07:06:00,
2013-04-17 08:11:00,54.0,53.4,30.01,SE,135,5.4,9.8,98,0.00,,,0.00,pywws,2013-04-17 07:11:00,
2013-04-17 08:17:00,54.0,53.4,30.01,South,180,3.8,6.9,98,0.00,,,0.00,pywws,2013-04-17 07:17:00,
2013-04-17 08:22:00,54.0,53.4,30.01,South,180,4.5,8.3,98,0.00,,,0.00,pywws,2013-04-17 07:22:00,
2013-04-17 08:28:00,54.0,53.4,30.01,South,180,3.8,6.9,98,0.00,,,0.00,pywws,2013-04-17 07:28:00,
2013-04-17 08:34:00,54.0,53.4,30.01,West,270,3.8,9.8,98,0.00,,,0.00,pywws,2013-04-17 07:34:00,
2013-04-17 08:39:00,54.0,53.4,30.01,SW,225,3.8,8.3,98,0.00,,,0.00,pywws,2013-04-17 07:39:00,
2013-04-17 08:45:00,53.8,53.2,30.01,West,270,2.2,6.9,98,0.00,,,0.00,pywws,2013-04-17 07:45:00,
2013-04-17 08:50:00,53.8,53.2,30.01,SE,135,4.5,10.7,98,0.00,,,0.00,pywws,2013-04-17 07:50:00,
2013-04-17 08:57:00,53.8,53.2,30.01,South,180,4.5,7.6,98,0.00,,,0.00,pywws,2013-04-17 07:57:00,
2013-04-17 09:02:00,54.0,53.4,30.01,SE,135,3.1,6.9,98,0.00,,,0.00,pywws,2013-04-17 08:02:00,
2013-04-17 09:07:00,54.0,53.4,30.01,South,180,5.4,11.4,98,0.00,,,0.00,pywws,2013-04-17 08:07:00,
2013-04-17 09:13:00,54.0,53.4,30.00,SE,135,2.2,3.8,98,0.00,,,0.00,pywws,2013-04-17 08:13:00,
2013-04-17 09:18:00,54.1,53.6,30.00,South,180,4.5,9.2,98,0.00,,,0.00,pywws,2013-04-17 08:18:00,
2013-04-17 09:24:00,54.3,53.8,30.01,South,180,3.1,5.4,98,0.00,,,0.00,pywws,2013-04-17 08:24:00,
2013-04-17 09:30:00,54.5,53.9,30.01,East,90,3.1,7.6,98,0.00,,,0.00,pywws,2013-04-17 08:30:00,
2013-04-17 09:35:00,54.5,53.9,30.00,SE,135,3.1,6.0,98,0.00,,,0.00,pywws,2013-04-17 08:35:00,
2013-04-17 09:41:00,54.5,53.9,30.01,NW,315,3.1,6.0,98,0.00,,,0.00,pywws,2013-04-17 08:41:00,
2013-04-17 09:46:00,54.7,54.1,30.00,West,270,2.2,5.4,98,0.00,,,0.00,pywws,2013-04-17 08:46:00,
2013-04-17 09:52:00,54.7,54.1,30.00,North,0,3.8,6.9,98,0.00,,,0.00,pywws,2013-04-17 08:52:00,
2013-04-17 09:58:00,54.7,54.1,30.00,NNE,23,2.2,5.4,98,0.00,,,0.00,pywws,2013-04-17 08:58:00,
2013-04-17 10:03:00,54.7,54.1,30.00,South,180,2.2,7.6,98,0.00,,,0.00,pywws,2013-04-17 09:03:00,
2013-04-17 10:09:00,54.9,54.3,29.99,SSE,158,1.6,8.3,98,0.00,,,0.00,pywws,2013-04-17 09:09:00,
2013-04-17 10:14:00,55.0,54.5,29.99,SE,135,1.6,5.4,98,0.00,,,0.00,pywws,2013-04-17 09:14:00,
2013-04-17 10:20:00,55.4,54.6,29.98,South,180,2.2,6.0,97,0.00,,,0.00,pywws,2013-04-17 09:20:00,
2013-04-17 10:26:00,55.8,54.3,29.98,South,180,4.5,10.7,95,0.00,,,0.00,pywws,2013-04-17 09:26:00,
2013-04-17 10:31:00,55.9,54.2,29.99,South,180,2.2,5.4,94,0.00,,,0.00,pywws,2013-04-17 09:31:00,
2013-04-17 10:37:00,55.9,53.6,29.99,East,90,3.8,8.3,92,0.00,,,0.00,pywws,2013-04-17 09:37:00,
2013-04-17 10:42:00,56.1,53.5,29.99,SE,135,0.7,3.8,91,0.00,,,0.00,pywws,2013-04-17 09:42:00,
2013-04-17 10:48:00,56.7,54.1,29.99,South,180,2.2,4.5,91,0.00,,,0.00,pywws,2013-04-17 09:48:00,
2013-04-17 10:54:00,57.4,54.2,29.99,NW,315,3.1,7.6,89,0.00,,,0.00,pywws,2013-04-17 09:54:00,
2013-04-17 10:59:00,57.7,53.3,29.99,South,180,5.4,13.0,85,0.00,,,0.00,pywws,2013-04-17 09:59:00,
2013-04-17 11:05:00,58.1,53.3,29.99,SE,135,3.8,9.8,84,0.00,,,0.00,pywws,2013-04-17 10:05:00,
2013-04-17 11:10:00,58.6,53.2,29.98,SE,135,6.0,11.4,82,0.00,,,0.00,pywws,2013-04-17 10:10:00,
2013-04-17 11:16:00,58.6,53.2,29.98,South,180,4.5,7.6,82,0.00,,,0.00,pywws,2013-04-17 10:16:00,
2013-04-17 11:22:00,59.0,53.2,29.99,SW,225,3.8,7.6,81,0.00,,,0.00,pywws,2013-04-17 10:22:00,
2013-04-17 11:27:00,58.8,53.0,29.98,East,90,5.4,13.6,81,0.00,,,0.00,pywws,2013-04-17 10:27:00,
2013-04-17 11:33:00,59.9,53.0,29.98,South,180,6.0,12.1,78,0.00,,,0.00,pywws,2013-04-17 10:33:00,
2013-04-17 11:38:00,59.7,52.8,29.98,South,180,3.1,6.0,78,0.00,,,0.00,pywws,2013-04-17 10:38:00,
2013-04-17 11:44:00,59.5,52.7,29.97,South,180,4.5,11.4,78,0.00,,,0.00,pywws,2013-04-17 10:44:00,
2013-04-17 11:50:00,60.4,52.8,29.97,SE,135,3.8,13.0,76,0.00,,,0.00,pywws,2013-04-17 10:50:00,
2013-04-17 11:55:00,60.3,52.3,29.96,SE,135,3.8,6.9,75,0.00,,,0.00,pywws,2013-04-17 10:55:00,
2013-04-17 12:01:00,60.1,52.1,29.96,SE,135,4.5,8.3,75,0.00,,,0.00,pywws,2013-04-17 11:01:00,
2013-04-17 12:06:00,60.3,52.3,29.96,NE,45,3.8,11.4,75,0.00,,,0.00,pywws,2013-04-17 11:06:00,
2013-04-17 12:12:00,61.0,53.4,29.96,SE,135,3.1,6.9,76,0.00,,,0.00,pywws,2013-04-17 11:12:00,
2013-04-17 12:18:00,62.1,52.5,29.95,West,270,5.4,10.7,71,0.00,,,0.00,pywws,2013-04-17 11:18:00,
2013-04-17 12:23:00,63.5,52.7,29.95,South,180,6.0,12.1,68,0.00,,,0.00,pywws,2013-04-17 11:23:00,
2013-04-17 12:29:00,64.4,52.4,29.95,SW,225,5.4,12.1,65,0.00,,,0.00,pywws,2013-04-17 11:29:00,
2013-04-17 12:34:00,64.9,52.9,29.95,SE,135,3.8,8.3,65,0.00,,,0.00,pywws,2013-04-17 11:34:00,
2013-04-17 12:40:00,66.2,52.3,29.95,SSE,158,6.0,12.1,61,0.00,,,0.00,pywws,2013-04-17 11:40:00,
2013-04-17 12:46:00,64.8,51.4,29.95,West,270,6.0,11.4,62,0.00,,,0.00,pywws,2013-04-17 11:46:00,
2013-04-17 12:51:00,63.7,51.7,29.95,SE,135,6.0,13.6,65,0.00,,,0.00,pywws,2013-04-17 11:51:00,
2013-04-17 12:57:00,63.0,51.4,29.94,SW,225,9.2,16.8,66,0.00,,,0.00,pywws,2013-04-17 11:57:00,
2013-04-17 13:02:00,62.2,51.9,29.95,South,180,6.9,11.4,69,0.00,,,0.00,pywws,2013-04-17 12:02:00,
2013-04-17 13:07:00,62.4,52.5,29.95,SE,135,5.4,14.5,70,0.00,,,0.00,pywws,2013-04-17 12:07:00,
2013-04-17 13:13:00,63.7,52.5,29.95,West,270,4.5,11.4,67,0.00,,,0.00,pywws,2013-04-17 12:13:00,
2013-04-17 13:18:00,64.8,52.3,29.94,South,180,5.4,11.4,64,0.00,,,0.00,pywws,2013-04-17 12:18:00,
2013-04-17 13:24:00,65.5,52.1,29.94,West,270,5.4,13.6,62,0.00,,,0.00,pywws,2013-04-17 12:24:00,
2013-04-17 13:30:00,66.2,53.2,29.93,SE,135,2.2,10.7,63,0.00,,,0.00,pywws,2013-04-17 12:30:00,
2013-04-17 13:35:00,65.8,52.4,29.93,North,0,2.2,7.6,62,0.00,,,0.00,pywws,2013-04-17 12:35:00,
2013-04-17 13:42:00,65.5,52.5,29.93,SE,135,3.8,9.2,63,0.00,,,0.00,pywws,2013-04-17 12:42:00,
2013-04-17 13:47:00,65.1,51.8,29.92,East,90,6.0,11.4,62,0.00,,,0.00,pywws,2013-04-17 12:47:00,
2013-04-17 13:53:00,65.5,52.5,29.92,SW,225,3.8,7.6,63,0.00,,,0.00,pywws,2013-04-17 12:53:00,
2013-04-17 13:58:00,66.9,52.1,29.92,East,90,5.4,9.8,59,0.00,,,0.00,pywws,2013-04-17 12:58:00,
2013-04-17 14:04:00,66.7,51.5,29.91,East,90,3.8,9.8,58,0.00,,,0.00,pywws,2013-04-17 13:04:00,
2013-04-17 14:10:00,67.3,52.5,29.91,East,90,3.1,6.9,59,0.00,,,0.00,pywws,2013-04-17 13:10:00,
2013-04-17 14:15:00,67.1,52.3,29.91,SE,135,4.5,8.3,59,0.00,,,0.00,pywws,2013-04-17 13:15:00,
2013-04-17 14:21:00,67.3,52.0,29.91,South,180,4.5,12.1,58,0.00,,,0.00,pywws,2013-04-17 13:21:00,
2013-04-17 14:26:00,65.8,51.6,29.91,WNW,293,4.5,12.1,60,0.00,,,0.00,pywws,2013-04-17 13:26:00,
2013-04-17 14:32:00,65.5,51.2,29.91,West,270,7.6,13.0,60,0.00,,,0.00,pywws,2013-04-17 13:32:00,
2013-04-17 14:38:00,65.5,51.7,29.91,SE,135,2.2,6.9,61,0.00,,,0.00,pywws,2013-04-17 13:38:00,
2013-04-17 14:43:00,65.7,52.3,29.90,South,180,3.8,8.3,62,0.00,,,0.00,pywws,2013-04-17 13:43:00,
2013-04-17 14:49:00,66.0,50.8,29.90,South,180,8.3,19.7,58,0.00,,,0.00,pywws,2013-04-17 13:49:00,
2013-04-17 14:54:00,65.3,51.1,29.90,SE,135,5.4,13.0,60,0.00,,,0.00,pywws,2013-04-17 13:54:00,
2013-04-17 15:00:00,64.6,50.4,29.90,SE,135,8.3,14.5,60,0.00,,,0.00,pywws,2013-04-17 14:00:00,
2013-04-17 15:06:00,64.0,49.9,29.89,South,180,3.1,7.6,60,0.00,,,0.00,pywws,2013-04-17 14:06:00,
2013-04-17 15:11:00,63.9,49.7,29.90,East,90,8.3,15.2,60,0.00,,,0.00,pywws,2013-04-17 14:11:00,
2013-04-17 15:17:00,63.7,49.5,29.89,South,180,4.5,11.4,60,0.00,,,0.00,pywws,2013-04-17 14:17:00,
2013-04-17 15:22:00,64.0,49.9,29.89,SE,135,5.4,12.1,60,0.00,,,0.00,pywws,2013-04-17 14:22:00,
2013-04-17 15:28:00,64.6,49.5,29.89,North,0,7.6,14.5,58,0.00,,,0.00,pywws,2013-04-17 14:28:00,
2013-04-17 15:34:00,64.9,49.3,29.88,SW,225,4.5,11.4,57,0.00,,,0.00,pywws,2013-04-17 14:34:00,
2013-04-17 15:39:00,64.9,49.3,29.88,SSE,158,6.0,9.8,57,0.00,,,0.00,pywws,2013-04-17 14:39:00,
2013-04-17 15:45:00,64.9,48.9,29.88,South,180,8.3,13.6,56,0.00,,,0.00,pywws,2013-04-17 14:45:00,
2013-04-17 15:50:00,64.8,49.2,29.87,North,0,5.4,12.1,57,0.00,,,0.00,pywws,2013-04-17 14:50:00,
2013-04-17 15:57:00,64.9,48.9,29.87,South,180,6.9,14.5,56,0.00,,,0.00,pywws,2013-04-17 14:57:00,
2013-04-17 16:02:00,65.7,49.0,29.87,SSW,203,6.0,10.7,55,0.00,,,0.00,pywws,2013-04-17 15:02:00,
2013-04-17 16:07:00,66.7,50.1,29.87,South,180,7.6,13.0,55,0.00,,,0.00,pywws,2013-04-17 15:07:00,
2013-04-17 16:13:00,67.1,49.4,29.86,East,90,6.9,15.2,53,0.00,,,0.00,pywws,2013-04-17 15:13:00,
2013-04-17 16:19:00,66.7,50.1,29.86,South,180,4.5,9.8,55,0.00,,,0.00,pywws,2013-04-17 15:19:00,
2013-04-17 16:24:00,66.4,48.7,29.87,South,180,7.6,12.1,53,0.00,,,0.00,pywws,2013-04-17 15:24:00,
2013-04-17 16:30:00,66.4,49.2,29.86,South,180,6.0,9.8,54,0.00,,,0.00,pywws,2013-04-17 15:30:00,
2013-04-17 16:36:00,66.4,49.7,29.87,SW,225,3.1,6.0,55,0.00,,,0.00,pywws,2013-04-17 15:36:00,
2013-04-17 16:41:00,66.4,49.7,29.86,South,180,6.0,12.1,55,0.00,,,0.00,pywws,2013-04-17 15:41:00,
2013-04-17 16:46:00,66.0,49.4,29.86,South,180,4.5,9.2,55,0.00,,,0.00,pywws,2013-04-17 15:46:00,
2013-04-17 16:52:00,66.4,50.2,29.85,SE,135,5.4,9.2,56,0.00,,,0.00,pywws,2013-04-17 15:52:00,
2013-04-17 16:58:00,66.9,50.2,29.85,SE,135,7.6,13.0,55,0.00,,,0.00,pywws,2013-04-17 15:58:00,
2013-04-17 17:03:00,66.4,49.2,29.85,North,0,4.5,10.7,54,0.00,,,0.00,pywws,2013-04-17 16:03:00,
2013-04-17 17:09:00,66.0,49.9,29.84,WNW,293,3.1,6.0,56,0.00,,,0.00,pywws,2013-04-17 16:09:00,
2013-04-17 17:14:00,66.2,49.5,29.83,East,90,4.5,9.2,55,0.00,,,0.00,pywws,2013-04-17 16:14:00,
2013-04-17 17:20:00,66.2,49.5,29.83,South,180,6.0,12.1,55,0.00,,,0.00,pywws,2013-04-17 16:20:00,
2013-04-17 17:26:00,68.2,49.9,29.82,SE,135,5.4,13.0,52,0.00,,,0.00,pywws,2013-04-17 16:26:00,
2013-04-17 17:32:00,69.1,49.6,29.82,NE,45,4.5,9.8,50,0.00,,,0.00,pywws,2013-04-17 16:32:00,
2013-04-17 17:37:00,68.5,49.2,29.82,SE,135,4.5,11.4,50,0.00,,,0.00,pywws,2013-04-17 16:37:00,
2013-04-17 17:43:00,68.7,49.9,29.81,SE,135,5.4,10.7,51,0.00,,,0.00,pywws,2013-04-17 16:43:00,
2013-04-17 17:48:00,68.9,50.0,29.81,South,180,2.2,3.8,51,0.00,,,0.00,pywws,2013-04-17 16:48:00,
2013-04-17 17:54:00,68.2,49.9,29.81,SE,135,5.4,9.8,52,0.00,,,0.00,pywws,2013-04-17 16:54:00,
2013-04-17 18:00:00,68.5,50.7,29.81,SE,135,5.4,9.2,53,0.00,,,0.00,pywws,2013-04-17 17:00:00,
2013-04-17 18:06:00,68.2,50.4,29.80,SE,135,3.8,10.7,53,0.00,,,0.00,pywws,2013-04-17 17:06:00,
2013-04-17 18:11:00,67.6,50.4,29.80,NE,45,4.5,9.8,54,0.00,,,0.00,pywws,2013-04-17 17:11:00,
2013-04-17 18:17:00,66.7,50.1,29.80,South,180,6.0,12.1,55,0.00,,,0.00,pywws,2013-04-17 17:17:00,
2013-04-17 18:22:00,66.2,50.5,29.80,South,180,3.8,6.9,57,0.00,,,0.00,pywws,2013-04-17 17:22:00,
2013-04-17 18:28:00,65.7,50.5,29.80,SE,135,5.4,9.8,58,0.00,,,0.00,pywws,2013-04-17 17:28:00,
2013-04-17 18:34:00,65.3,50.6,29.80,South,180,4.5,8.3,59,0.00,,,0.00,pywws,2013-04-17 17:34:00,
2013-04-17 18:39:00,64.9,50.7,29.79,SE,135,5.4,12.1,60,0.00,,,0.00,pywws,2013-04-17 17:39:00,
2013-04-17 18:45:00,64.8,51.0,29.79,South,180,5.4,11.4,61,0.00,,,0.00,pywws,2013-04-17 17:45:00,
2013-04-17 18:51:00,64.6,50.8,29.79,SW,225,3.8,9.2,61,0.00,,,0.00,pywws,2013-04-17 17:51:00,
2013-04-17 18:57:00,64.4,50.7,29.79,South,180,6.0,12.1,61,0.00,,,0.00,pywws,2013-04-17 17:57:00,
2013-04-17 19:02:00,64.2,50.9,29.78,South,180,2.2,6.0,62,0.00,,,0.00,pywws,2013-04-17 18:02:00,
2013-04-17 19:08:00,64.0,50.8,29.79,South,180,5.4,11.4,62,0.00,,,0.00,pywws,2013-04-17 18:08:00,
2013-04-17 19:14:00,64.0,51.2,29.79,North,0,4.5,9.2,63,0.00,,,0.00,pywws,2013-04-17 18:14:00,
2013-04-17 19:19:00,63.9,51.0,29.78,SE,135,6.9,13.0,63,0.00,,,0.00,pywws,2013-04-17 18:19:00,
2013-04-17 19:25:00,63.7,50.8,29.78,SE,135,1.6,4.5,63,0.00,,,0.00,pywws,2013-04-17 18:25:00,
2013-04-17 19:30:00,63.5,51.1,29.78,South,180,3.8,6.9,64,0.00,,,0.00,pywws,2013-04-17 18:30:00,
2013-04-17 19:36:00,63.3,50.9,29.78,WNW,293,2.2,6.9,64,0.00,,,0.00,pywws,2013-04-17 18:36:00,
2013-04-17 19:42:00,63.3,51.3,29.78,NE,45,4.5,7.6,65,0.00,,,0.00,pywws,2013-04-17 18:42:00,
2013-04-17 19:47:00,63.1,50.8,29.78,East,90,3.8,7.6,64,0.00,,,0.00,pywws,2013-04-17 18:47:00,
2013-04-17 19:53:00,63.1,50.8,29.78,SW,225,5.4,13.0,64,0.00,,,0.00,pywws,2013-04-17 18:53:00,
2013-04-17 19:59:00,63.0,51.0,29.78,South,180,3.8,7.6,65,0.00,,,0.00,pywws,2013-04-17 18:59:00,
2013-04-17 20:04:00,62.8,50.8,29.78,South,180,6.0,11.4,65,0.00,,,0.00,pywws,2013-04-17 19:04:00,
2013-04-17 20:10:00,62.6,50.7,29.78,South,180,6.9,13.0,65,0.00,,,0.00,pywws,2013-04-17 19:10:00,
2013-04-17 20:15:00,62.2,50.3,29.78,South,180,3.8,7.6,65,0.00,,,0.00,pywws,2013-04-17 19:15:00,
2013-04-17 20:21:00,61.9,50.0,29.78,SE,135,5.4,11.4,65,0.00,,,0.00,pywws,2013-04-17 19:21:00,
2013-04-17 20:26:00,61.5,50.1,29.78,SW,225,5.4,9.8,66,0.00,,,0.00,pywws,2013-04-17 19:26:00,
2013-04-17 20:32:00,61.0,50.3,29.78,South,180,6.9,12.1,68,0.00,,,0.00,pywws,2013-04-17 19:32:00,
2013-04-17 20:38:00,60.6,51.2,29.78,SW,225,7.6,13.6,71,0.00,,,0.00,pywws,2013-04-17 19:38:00,
2013-04-17 20:43:00,60.4,51.4,29.78,South,180,4.5,11.4,72,0.00,,,0.00,pywws,2013-04-17 19:43:00,
2013-04-17 20:49:00,60.3,51.6,29.78,SSE,158,8.3,14.5,73,0.00,,,0.00,pywws,2013-04-17 19:49:00,
2013-04-17 20:54:00,59.7,51.4,29.78,SSE,158,6.0,12.1,74,0.00,,,0.00,pywws,2013-04-17 19:54:00,
2013-04-17 21:00:00,59.4,51.1,29.79,East,90,6.0,18.3,74,0.00,,,0.00,pywws,2013-04-17 20:00:00,
2013-04-17 21:06:00,59.2,50.9,29.79,South,180,3.8,9.2,74,0.00,,,0.00,pywws,2013-04-17 20:06:00,
2013-04-17 21:11:00,58.8,50.9,29.79,South,180,6.9,13.6,75,0.00,,,0.00,pywws,2013-04-17 20:11:00,
2013-04-17 21:17:00,58.6,51.1,29.79,SW,225,4.5,10.7,76,0.00,,,0.00,pywws,2013-04-17 20:17:00,
2013-04-17 21:22:00,58.3,51.1,29.78,WNW,293,4.5,13.0,77,0.00,,,0.00,pywws,2013-04-17 20:22:00,
2013-04-17 21:28:00,58.3,51.1,29.79,West,270,6.9,13.0,77,0.00,,,0.00,pywws,2013-04-17 20:28:00,
2013-04-17 21:34:00,58.1,50.9,29.78,South,180,3.1,6.0,77,0.00,,,0.00,pywws,2013-04-17 20:34:00,
2013-04-17 21:39:00,57.9,50.8,29.78,South,180,5.4,9.8,77,0.00,,,0.00,pywws,2013-04-17 20:39:00,
2013-04-17 21:45:00,57.9,50.8,29.78,South,180,3.8,9.8,77,0.00,,,0.00,pywws,2013-04-17 20:45:00,
2013-04-17 21:50:00,57.7,50.6,29.78,South,180,3.8,6.9,77,0.00,,,0.00,pywws,2013-04-17 20:50:00,
2013-04-17 21:57:00,57.4,50.2,29.78,South,180,3.8,7.6,77,0.00,,,0.00,pywws,2013-04-17 20:57:00,
2013-04-17 22:02:00,57.2,49.7,29.78,WNW,293,6.0,13.0,76,0.00,,,0.00,pywws,2013-04-17 21:02:00,
2013-04-17 22:08:00,57.2,49.7,29.78,SE,135,5.4,14.5,76,0.00,,,0.00,pywws,2013-04-17 21:08:00,
2013-04-17 22:14:00,57.2,49.7,29.78,SW,225,7.6,11.4,76,0.00,,,0.00,pywws,2013-04-17 21:14:00,
2013-04-17 22:19:00,56.8,49.0,29.78,South,180,5.4,12.1,75,0.00,,,0.00,pywws,2013-04-17 21:19:00,
2013-04-17 22:25:00,56.7,48.5,29.78,South,180,5.4,9.8,74,0.00,,,0.00,pywws,2013-04-17 21:25:00,
2013-04-17 22:30:00,56.3,48.1,29.79,SE,135,7.6,16.8,74,0.00,,,0.00,pywws,2013-04-17 21:30:00,
2013-04-17 22:36:00,56.1,47.6,29.79,South,180,5.4,12.1,73,0.00,,,0.00,pywws,2013-04-17 21:36:00,
2013-04-17 22:42:00,55.8,47.6,29.79,NW,315,4.5,12.1,74,0.00,,,0.00,pywws,2013-04-17 21:42:00,
2013-04-17 22:47:00,55.6,47.8,29.79,East,90,4.5,7.6,75,0.00,,,0.00,pywws,2013-04-17 21:47:00,
2013-04-17 22:53:00,55.4,47.6,29.79,SE,135,3.8,6.9,75,0.00,,,0.00,pywws,2013-04-17 21:53:00,
2013-04-17 22:58:00,55.0,47.6,29.79,SE,135,3.8,9.2,76,0.00,,,0.00,pywws,2013-04-17 21:58:00,
2013-04-17 23:04:00,54.7,47.3,29.79,East,90,5.4,12.1,76,0.00,,,0.00,pywws,2013-04-17 22:04:00,
2013-04-17 23:10:00,54.5,47.4,29.80,SE,135,5.4,8.3,77,0.00,,,0.00,pywws,2013-04-17 22:10:00,
2013-04-17 23:15:00,54.5,47.4,29.80,SW,225,4.5,9.2,77,0.00,,,0.00,pywws,2013-04-17 22:15:00,
2013-04-17 23:21:00,54.3,46.9,29.79,SW,225,4.5,13.0,76,0.00,,,0.00,pywws,2013-04-17 22:21:00,
2013-04-17 23:26:00,54.1,46.7,29.80,NW,315,3.8,7.6,76,0.00,,,0.00,pywws,2013-04-17 22:26:00,
2013-04-17 23:32:00,54.0,46.9,29.80,South,180,4.5,12.1,77,0.00,,,0.00,pywws,2013-04-17 22:32:00,
2013-04-17 23:38:00,53.8,46.7,29.80,North,0,4.5,8.3,77,0.00,,,0.00,pywws,2013-04-17 22:38:00,
2013-04-17 23:43:00,53.4,46.4,29.79,SE,135,3.1,7.6,77,0.00,,,0.00,pywws,2013-04-17 22:43:00,
2013-04-17 23:49:00,53.2,46.2,29.79,North,0,3.1,10.7,77,0.00,,,0.00,pywws,2013-04-17 22:49:00,
2013-04-17 23:54:00,53.2,46.2,29.80,SE,135,5.4,13.0,77,0.00,,,0.00,pywws,2013-04-17 22:54:00,